RJFR/KKJ METAR and TAF weather

Enter ICAO airport designator
Station Type Date Time Source
RJFR METAR 2018/12/11 20:00 UTC NOAA

RJFR 112000Z 33011KT 9999 -SHRA FEW010 SCT020 BKN035 11/08 Q1019


Station Type Date Time Source
RJFR Decoded METAR 2018/12/11 20:00 UTC NOAA

Kitakyushu Airport, Japan (RJFR) 33-50N 130-57E 6M
Dec 11, 2018 - 03:00 PM EST / 2018.12.11 2000 UTC
Wind: from the NNW (330 degrees) at 13 MPH (11 KT):0
Visibility: greater than 7 mile(s):0
Sky conditions: mostly cloudy
Weather: light rain showers
Temperature: 51 F (11 C)
Dew Point: 46 F (8 C)
Relative Humidity: 81%
Pressure (altimeter): 30.09 in. Hg (1019 hPa)
ob: RJFR 112000Z 33011KT 9999 -SHRA FEW010 SCT020 BKN035 11/08 Q1019
cycle: 20

Station Type Date Time Source
RJFR TAF 2018/12/11 18:00 UTC NOAA

TAF RJFR 111708Z 1118/1300 33016KT 9999 FEW015 BKN030
TEMPO 1120/1203 32016G26KT
BECMG 1215/1218 29005KT


Example: see airport list